sensor_id;sensor_type;location;lat;lon;timestamp;temperature;humidity
52034;DHT22;38045;52.988;6.536;2022-09-02T00:00:42;15.30;99.00
52034;DHT22;38045;52.988;6.536;2022-09-02T00:03:08;15.30;98.90
52034;DHT22;38045;52.988;6.536;2022-09-02T00:05:34;15.20;99.20
52034;DHT22;38045;52.988;6.536;2022-09-02T00:07:59;15.20;99.20
52034;DHT22;38045;52.988;6.536;2022-09-02T00:10:25;15.20;99.00
52034;DHT22;38045;52.988;6.536;2022-09-02T00:12:51;15.20;99.30
52034;DHT22;38045;52.988;6.536;2022-09-02T00:15:16;15.10;99.20
52034;DHT22;38045;52.988;6.536;2022-09-02T00:17:42;15.10;99.30
52034;DHT22;38045;52.988;6.536;2022-09-02T00:20:08;15.10;99.20
52034;DHT22;38045;52.988;6.536;2022-09-02T00:22:34;15.00;99.10
52034;DHT22;38045;52.988;6.536;2022-09-02T00:25:00;15.10;99.30
52034;DHT22;38045;52.988;6.536;2022-09-02T00:27:25;15.00;99.20
52034;DHT22;38045;52.988;6.536;2022-09-02T00:29:51;15.00;99.20
52034;DHT22;38045;52.988;6.536;2022-09-02T00:32:18;15.00;99.40
52034;DHT22;38045;52.988;6.536;2022-09-02T00:34:43;15.00;99.40
52034;DHT22;38045;52.988;6.536;2022-09-02T00:37:09;15.00;99.40
52034;DHT22;38045;52.988;6.536;2022-09-02T00:39:35;14.90;99.40
52034;DHT22;38045;52.988;6.536;2022-09-02T00:42:02;15.00;99.50
52034;DHT22;38045;52.988;6.536;2022-09-02T00:44:28;14.90;99.50
52034;DHT22;38045;52.988;6.536;2022-09-02T00:46:53;14.90;99.70
52034;DHT22;38045;52.988;6.536;2022-09-02T00:49:23;14.90;99.70
52034;DHT22;38045;52.988;6.536;2022-09-02T00:52:24;14.80;99.60
52034;DHT22;38045;52.988;6.536;2022-09-02T00:54:55;14.80;99.80
52034;DHT22;38045;52.988;6.536;2022-09-02T00:57:24;14.80;99.70
52034;DHT22;38045;52.988;6.536;2022-09-02T01:00:06;14.70;99.70
52034;DHT22;38045;52.988;6.536;2022-09-02T01:02:34;14.70;99.80
52034;DHT22;38045;52.988;6.536;2022-09-02T01:05:01;14.70;99.90
52034;DHT22;38045;52.988;6.536;2022-09-02T01:07:30;14.60;99.90
52034;DHT22;38045;52.988;6.536;2022-09-02T01:09:59;14.60;99.90
52034;DHT22;38045;52.988;6.536;2022-09-02T01:12:25;14.60;99.90
52034;DHT22;38045;52.988;6.536;2022-09-02T01:14:54;14.50;99.90
52034;DHT22;38045;52.988;6.536;2022-09-02T01:17:19;14.50;99.90
52034;DHT22;38045;52.988;6.536;2022-09-02T01:19:49;14.50;99.90
52034;DHT22;38045;52.988;6.536;2022-09-02T01:22:21;14.40;99.90
52034;DHT22;38045;52.988;6.536;2022-09-02T01:24:47;14.40;99.90
52034;DHT22;38045;52.988;6.536;2022-09-02T01:27:16;14.40;99.90
52034;DHT22;38045;52.988;6.536;2022-09-02T01:29:43;14.30;99.90
52034;DHT22;38045;52.988;6.536;2022-09-02T01:32:09;14.30;99.90
52034;DHT22;38045;52.988;6.536;2022-09-02T01:34:35;14.20;99.90
52034;DHT22;38045;52.988;6.536;2022-09-02T01:37:01;14.30;99.90
52034;DHT22;38045;52.988;6.536;2022-09-02T01:39:26;14.10;99.90
52034;DHT22;38045;52.988;6.536;2022-09-02T01:41:52;14.10;99.90
52034;DHT22;38045;52.988;6.536;2022-09-02T01:44:18;14.10;99.90
52034;DHT22;38045;52.988;6.536;2022-09-02T01:46:44;14.10;99.90
52034;DHT22;38045;52.988;6.536;2022-09-02T01:49:09;14.00;99.90
52034;DHT22;38045;52.988;6.536;2022-09-02T01:51:35;14.00;99.90
52034;DHT22;38045;52.988;6.536;2022-09-02T01:54:01;14.00;99.90
52034;DHT22;38045;52.988;6.536;2022-09-02T01:56:27;14.00;99.90
52034;DHT22;38045;52.988;6.536;2022-09-02T01:58:52;14.00;99.90
52034;DHT22;38045;52.988;6.536;2022-09-02T02:01:18;14.00;99.90
52034;DHT22;38045;52.988;6.536;2022-09-02T02:03:44;14.00;99.90
52034;DHT22;38045;52.988;6.536;2022-09-02T02:06:13;14.00;99.90
52034;DHT22;38045;52.988;6.536;2022-09-02T02:08:39;14.00;99.90
52034;DHT22;38045;52.988;6.536;2022-09-02T02:11:05;14.00;99.90
52034;DHT22;38045;52.988;6.536;2022-09-02T02:13:31;14.00;99.90
52034;DHT22;38045;52.988;6.536;2022-09-02T02:15:57;14.00;99.90
52034;DHT22;38045;52.988;6.536;2022-09-02T02:18:22;14.00;99.90
52034;DHT22;38045;52.988;6.536;2022-09-02T02:20:48;14.00;99.90
52034;DHT22;38045;52.988;6.536;2022-09-02T02:23:14;13.90;99.90
52034;DHT22;38045;52.988;6.536;2022-09-02T02:25:39;13.90;99.90
52034;DHT22;38045;52.988;6.536;2022-09-02T02:28:06;13.90;99.90
52034;DHT22;38045;52.988;6.536;2022-09-02T02:30:32;13.90;99.90
52034;DHT22;38045;52.988;6.536;2022-09-02T02:32:58;13.80;99.90
52034;DHT22;38045;52.988;6.536;2022-09-02T02:35:24;13.80;99.90
52034;DHT22;38045;52.988;6.536;2022-09-02T02:37:50;13.80;99.90
52034;DHT22;38045;52.988;6.536;2022-09-02T02:40:18;13.80;99.90
52034;DHT22;38045;52.988;6.536;2022-09-02T02:42:44;13.80;99.90
52034;DHT22;38045;52.988;6.536;2022-09-02T02:45:10;13.90;99.90
52034;DHT22;38045;52.988;6.536;2022-09-02T02:47:40;13.90;99.90
52034;DHT22;38045;52.988;6.536;2022-09-02T02:50:09;13.90;99.90
52034;DHT22;38045;52.988;6.536;2022-09-02T02:52:37;13.90;99.90
52034;DHT22;38045;52.988;6.536;2022-09-02T02:55:03;13.90;99.90
52034;DHT22;38045;52.988;6.536;2022-09-02T02:57:31;13.90;99.90
52034;DHT22;38045;52.988;6.536;2022-09-02T02:59:57;13.80;99.90
52034;DHT22;38045;52.988;6.536;2022-09-02T03:02:23;13.80;99.90
52034;DHT22;38045;52.988;6.536;2022-09-02T03:04:48;13.80;99.90
52034;DHT22;38045;52.988;6.536;2022-09-02T03:07:15;13.80;99.90
52034;DHT22;38045;52.988;6.536;2022-09-02T03:09:40;13.80;99.90
52034;DHT22;38045;52.988;6.536;2022-09-02T03:12:07;13.80;99.90
52034;DHT22;38045;52.988;6.536;2022-09-02T03:14:33;13.80;99.90
52034;DHT22;38045;52.988;6.536;2022-09-02T03:16:59;13.80;99.90
52034;DHT22;38045;52.988;6.536;2022-09-02T03:19:24;13.70;99.90
52034;DHT22;38045;52.988;6.536;2022-09-02T03:21:51;13.70;99.90
52034;DHT22;38045;52.988;6.536;2022-09-02T03:24:17;13.70;99.90
52034;DHT22;38045;52.988;6.536;2022-09-02T03:26:43;13.70;99.90
52034;DHT22;38045;52.988;6.536;2022-09-02T03:29:08;13.70;99.90
52034;DHT22;38045;52.988;6.536;2022-09-02T03:31:34;13.70;99.90
52034;DHT22;38045;52.988;6.536;2022-09-02T03:34:00;13.70;99.90
52034;DHT22;38045;52.988;6.536;2022-09-02T03:36:28;13.70;99.90
52034;DHT22;38045;52.988;6.536;2022-09-02T03:38:55;13.70;99.90
52034;DHT22;38045;52.988;6.536;2022-09-02T03:41:21;13.70;99.90
52034;DHT22;38045;52.988;6.536;2022-09-02T03:43:47;13.70;99.90
52034;DHT22;38045;52.988;6.536;2022-09-02T03:46:13;13.70;99.90
52034;DHT22;38045;52.988;6.536;2022-09-02T03:48:39;13.60;99.90
52034;DHT22;38045;52.988;6.536;2022-09-02T03:51:05;13.60;99.90
52034;DHT22;38045;52.988;6.536;2022-09-02T03:53:32;13.60;99.90
52034;DHT22;38045;52.988;6.536;2022-09-02T03:56:02;13.60;99.90
52034;DHT22;38045;52.988;6.536;2022-09-02T03:58:28;13.60;99.90
52034;DHT22;38045;52.988;6.536;2022-09-02T04:00:54;13.50;99.90
52034;DHT22;38045;52.988;6.536;2022-09-02T04:03:19;13.50;99.90
52034;DHT22;38045;52.988;6.536;2022-09-02T04:05:46;13.50;99.90
52034;DHT22;38045;52.988;6.536;2022-09-02T04:08:13;13.50;99.90
52034;DHT22;38045;52.988;6.536;2022-09-02T04:10:38;13.40;99.90
52034;DHT22;38045;52.988;6.536;2022-09-02T04:13:04;13.40;99.90
52034;DHT22;38045;52.988;6.536;2022-09-02T04:15:30;13.30;99.90
52034;DHT22;38045;52.988;6.536;2022-09-02T04:17:55;13.30;99.90
52034;DHT22;38045;52.988;6.536;2022-09-02T04:20:21;13.30;99.90
52034;DHT22;38045;52.988;6.536;2022-09-02T04:22:48;13.20;99.90
52034;DHT22;38045;52.988;6.536;2022-09-02T04:25:13;13.20;99.90
52034;DHT22;38045;52.988;6.536;2022-09-02T04:27:39;13.10;99.90
52034;DHT22;38045;52.988;6.536;2022-09-02T04:30:06;13.10;99.90
52034;DHT22;38045;52.988;6.536;2022-09-02T04:32:32;13.10;99.90
52034;DHT22;38045;52.988;6.536;2022-09-02T04:34:58;13.10;99.90
52034;DHT22;38045;52.988;6.536;2022-09-02T04:37:24;13.00;99.90
52034;DHT22;38045;52.988;6.536;2022-09-02T04:39:49;13.00;99.90
52034;DHT22;38045;52.988;6.536;2022-09-02T04:42:15;13.10;99.90
52034;DHT22;38045;52.988;6.536;2022-09-02T04:44:41;13.00;99.90
52034;DHT22;38045;52.988;6.536;2022-09-02T04:47:06;13.00;99.90
52034;DHT22;38045;52.988;6.536;2022-09-02T04:49:32;12.90;99.90
52034;DHT22;38045;52.988;6.536;2022-09-02T04:51:58;12.90;99.90
52034;DHT22;38045;52.988;6.536;2022-09-02T04:54:25;12.90;99.90
52034;DHT22;38045;52.988;6.536;2022-09-02T04:56:50;12.80;99.90
52034;DHT22;38045;52.988;6.536;2022-09-02T04:59:16;12.80;99.90
52034;DHT22;38045;52.988;6.536;2022-09-02T05:01:42;12.80;99.90
52034;DHT22;38045;52.988;6.536;2022-09-02T05:04:08;12.80;99.90
52034;DHT22;38045;52.988;6.536;2022-09-02T05:06:34;12.80;99.90
52034;DHT22;38045;52.988;6.536;2022-09-02T05:09:01;12.70;99.90
52034;DHT22;38045;52.988;6.536;2022-09-02T05:11:29;12.70;99.90
52034;DHT22;38045;52.988;6.536;2022-09-02T05:13:57;12.70;99.90
52034;DHT22;38045;52.988;6.536;2022-09-02T05:16:29;12.80;99.90
52034;DHT22;38045;52.988;6.536;2022-09-02T05:18:55;12.80;99.90
52034;DHT22;38045;52.988;6.536;2022-09-02T05:21:21;12.90;99.90
52034;DHT22;38045;52.988;6.536;2022-09-02T05:23:49;12.90;99.90
52034;DHT22;38045;52.988;6.536;2022-09-02T05:26:14;12.90;99.90
52034;DHT22;38045;52.988;6.536;2022-09-02T05:28:41;13.00;99.90
52034;DHT22;38045;52.988;6.536;2022-09-02T05:31:10;13.00;99.90
52034;DHT22;38045;52.988;6.536;2022-09-02T05:33:37;13.00;99.90
52034;DHT22;38045;52.988;6.536;2022-09-02T05:36:06;13.00;99.90
52034;DHT22;38045;52.988;6.536;2022-09-02T05:38:33;13.00;99.90
52034;DHT22;38045;52.988;6.536;2022-09-02T05:41:06;13.00;99.90
52034;DHT22;38045;52.988;6.536;2022-09-02T05:43:37;13.00;99.90
52034;DHT22;38045;52.988;6.536;2022-09-02T05:46:07;13.00;99.90
52034;DHT22;38045;52.988;6.536;2022-09-02T05:48:35;13.10;99.90
52034;DHT22;38045;52.988;6.536;2022-09-02T05:51:19;13.20;99.90
52034;DHT22;38045;52.988;6.536;2022-09-02T05:53:45;13.20;99.90
52034;DHT22;38045;52.988;6.536;2022-09-02T05:56:11;13.40;99.90
52034;DHT22;38045;52.988;6.536;2022-09-02T05:58:37;13.40;99.90
52034;DHT22;38045;52.988;6.536;2022-09-02T06:01:10;13.50;99.90
52034;DHT22;38045;52.988;6.536;2022-09-02T06:03:36;13.50;99.90
52034;DHT22;38045;52.988;6.536;2022-09-02T06:06:03;13.60;99.90
52034;DHT22;38045;52.988;6.536;2022-09-02T06:08:29;13.60;99.90
52034;DHT22;38045;52.988;6.536;2022-09-02T06:10:55;13.70;99.90
52034;DHT22;38045;52.988;6.536;2022-09-02T06:13:20;13.80;99.90
52034;DHT22;38045;52.988;6.536;2022-09-02T06:15:47;13.80;99.90
52034;DHT22;38045;52.988;6.536;2022-09-02T06:18:13;13.90;99.90
52034;DHT22;38045;52.988;6.536;2022-09-02T06:20:40;14.00;99.90
52034;DHT22;38045;52.988;6.536;2022-09-02T06:23:07;14.10;99.90
52034;DHT22;38045;52.988;6.536;2022-09-02T06:25:36;14.20;99.90
52034;DHT22;38045;52.988;6.536;2022-09-02T06:28:02;14.20;99.90
52034;DHT22;38045;52.988;6.536;2022-09-02T06:30:28;14.30;99.90
52034;DHT22;38045;52.988;6.536;2022-09-02T06:32:54;14.40;99.90
52034;DHT22;38045;52.988;6.536;2022-09-02T06:35:21;14.50;99.90
52034;DHT22;38045;52.988;6.536;2022-09-02T06:37:46;14.50;99.90
52034;DHT22;38045;52.988;6.536;2022-09-02T06:40:12;14.60;99.90
52034;DHT22;38045;52.988;6.536;2022-09-02T06:42:39;14.70;99.90
52034;DHT22;38045;52.988;6.536;2022-09-02T06:45:05;14.80;99.90
52034;DHT22;38045;52.988;6.536;2022-09-02T06:47:31;14.90;99.90
52034;DHT22;38045;52.988;6.536;2022-09-02T06:49:58;15.00;99.90
52034;DHT22;38045;52.988;6.536;2022-09-02T06:52:24;15.10;99.90
52034;DHT22;38045;52.988;6.536;2022-09-02T06:54:49;15.10;99.90
52034;DHT22;38045;52.988;6.536;2022-09-02T06:57:15;15.30;99.90
52034;DHT22;38045;52.988;6.536;2022-09-02T06:59:41;15.40;99.90
52034;DHT22;38045;52.988;6.536;2022-09-02T07:02:07;15.50;99.90
52034;DHT22;38045;52.988;6.536;2022-09-02T07:04:32;15.50;99.90
52034;DHT22;38045;52.988;6.536;2022-09-02T07:07:16;15.60;99.90
52034;DHT22;38045;52.988;6.536;2022-09-02T07:09:42;15.70;99.90
52034;DHT22;38045;52.988;6.536;2022-09-02T07:12:08;15.80;99.90
52034;DHT22;38045;52.988;6.536;2022-09-02T07:14:39;15.80;99.90
52034;DHT22;38045;52.988;6.536;2022-09-02T07:17:06;15.80;99.90
52034;DHT22;38045;52.988;6.536;2022-09-02T07:19:31;16.00;99.90
52034;DHT22;38045;52.988;6.536;2022-09-02T07:21:57;16.00;99.90
52034;DHT22;38045;52.988;6.536;2022-09-02T07:24:23;16.10;99.90
52034;DHT22;38045;52.988;6.536;2022-09-02T07:26:49;16.20;99.90
52034;DHT22;38045;52.988;6.536;2022-09-02T07:29:15;16.30;99.90
52034;DHT22;38045;52.988;6.536;2022-09-02T07:31:44;16.40;99.90
52034;DHT22;38045;52.988;6.536;2022-09-02T07:34:11;16.50;99.90
52034;DHT22;38045;52.988;6.536;2022-09-02T07:36:37;16.50;99.90
52034;DHT22;38045;52.988;6.536;2022-09-02T07:39:05;16.60;99.90
52034;DHT22;38045;52.988;6.536;2022-09-02T07:41:31;16.70;99.90
52034;DHT22;38045;52.988;6.536;2022-09-02T07:43:57;16.90;99.90
52034;DHT22;38045;52.988;6.536;2022-09-02T07:46:23;17.00;99.90
52034;DHT22;38045;52.988;6.536;2022-09-02T07:48:49;17.10;99.90
52034;DHT22;38045;52.988;6.536;2022-09-02T07:51:16;17.20;99.90
52034;DHT22;38045;52.988;6.536;2022-09-02T07:53:42;17.30;99.90
52034;DHT22;38045;52.988;6.536;2022-09-02T07:56:08;17.40;99.90
52034;DHT22;38045;52.988;6.536;2022-09-02T07:58:34;17.50;99.90
52034;DHT22;38045;52.988;6.536;2022-09-02T08:01:00;17.70;99.90
52034;DHT22;38045;52.988;6.536;2022-09-02T08:03:27;17.70;99.90
52034;DHT22;38045;52.988;6.536;2022-09-02T08:05:53;17.80;99.90
52034;DHT22;38045;52.988;6.536;2022-09-02T08:08:19;17.90;99.90
52034;DHT22;38045;52.988;6.536;2022-09-02T08:10:49;18.00;99.90
52034;DHT22;38045;52.988;6.536;2022-09-02T08:13:15;18.10;99.90
52034;DHT22;38045;52.988;6.536;2022-09-02T08:15:41;18.30;99.90
52034;DHT22;38045;52.988;6.536;2022-09-02T08:18:07;18.40;99.90
52034;DHT22;38045;52.988;6.536;2022-09-02T08:20:33;18.60;99.90
52034;DHT22;38045;52.988;6.536;2022-09-02T08:22:59;18.70;99.90
52034;DHT22;38045;52.988;6.536;2022-09-02T08:25:25;18.90;99.90
52034;DHT22;38045;52.988;6.536;2022-09-02T08:27:53;19.00;99.90
52034;DHT22;38045;52.988;6.536;2022-09-02T08:30:19;19.00;99.90
52034;DHT22;38045;52.988;6.536;2022-09-02T08:32:44;19.10;99.90
52034;DHT22;38045;52.988;6.536;2022-09-02T08:35:10;19.30;99.90
52034;DHT22;38045;52.988;6.536;2022-09-02T08:37:36;19.30;99.90
52034;DHT22;38045;52.988;6.536;2022-09-02T08:40:06;19.40;99.50
52034;DHT22;38045;52.988;6.536;2022-09-02T08:42:34;19.50;99.90
52034;DHT22;38045;52.988;6.536;2022-09-02T08:47:46;19.80;99.10
52034;DHT22;38045;52.988;6.536;2022-09-02T08:50:16;19.90;98.90
52034;DHT22;38045;52.988;6.536;2022-09-02T08:52:45;20.00;99.30
52034;DHT22;38045;52.988;6.536;2022-09-02T08:55:17;20.00;99.50
52034;DHT22;38045;52.988;6.536;2022-09-02T08:57:44;20.00;99.30
52034;DHT22;38045;52.988;6.536;2022-09-02T09:00:11;20.20;99.30
52034;DHT22;38045;52.988;6.536;2022-09-02T09:08:19;20.50;97.60
52034;DHT22;38045;52.988;6.536;2022-09-02T09:16:49;20.70;97.30
52034;DHT22;38045;52.988;6.536;2022-09-02T09:21:56;20.90;97.20
52034;DHT22;38045;52.988;6.536;2022-09-02T09:24:36;21.00;97.20
52034;DHT22;38045;52.988;6.536;2022-09-02T09:27:07;21.20;95.70
52034;DHT22;38045;52.988;6.536;2022-09-02T09:29:34;21.30;96.30
52034;DHT22;38045;52.988;6.536;2022-09-02T09:32:01;21.40;96.10
52034;DHT22;38045;52.988;6.536;2022-09-02T09:34:53;21.40;96.20
52034;DHT22;38045;52.988;6.536;2022-09-02T09:45:40;21.90;95.90
52034;DHT22;38045;52.988;6.536;2022-09-02T09:48:25;22.10;95.10
52034;DHT22;38045;52.988;6.536;2022-09-02T09:53:24;22.20;94.60
52034;DHT22;38045;52.988;6.536;2022-09-02T09:58:29;22.40;94.50
52034;DHT22;38045;52.988;6.536;2022-09-02T10:00:56;22.50;94.30
52034;DHT22;38045;52.988;6.536;2022-09-02T10:03:26;22.60;93.80
52034;DHT22;38045;52.988;6.536;2022-09-02T10:05:55;22.70;92.20
52034;DHT22;38045;52.988;6.536;2022-09-02T10:08:27;22.90;93.00
52034;DHT22;38045;52.988;6.536;2022-09-02T10:11:20;23.00;92.30
52034;DHT22;38045;52.988;6.536;2022-09-02T10:13:46;23.20;91.80
52034;DHT22;38045;52.988;6.536;2022-09-02T10:16:19;23.40;93.00
52034;DHT22;38045;52.988;6.536;2022-09-02T10:19:05;23.40;91.40
52034;DHT22;38045;52.988;6.536;2022-09-02T10:30:17;23.50;90.50
52034;DHT22;38045;52.988;6.536;2022-09-02T10:40:38;23.90;86.90
52034;DHT22;38045;52.988;6.536;2022-09-02T10:43:24;24.20;90.40
52034;DHT22;38045;52.988;6.536;2022-09-02T10:45:59;24.30;87.70
52034;DHT22;38045;52.988;6.536;2022-09-02T10:51:09;24.30;87.30
52034;DHT22;38045;52.988;6.536;2022-09-02T10:53:50;24.20;83.50
52034;DHT22;38045;52.988;6.536;2022-09-02T10:56:24;24.10;83.10
52034;DHT22;38045;52.988;6.536;2022-09-02T10:59:01;24.10;83.00
52034;DHT22;38045;52.988;6.536;2022-09-02T11:01:47;24.20;83.00
52034;DHT22;38045;52.988;6.536;2022-09-02T11:07:03;24.20;81.30
52034;DHT22;38045;52.988;6.536;2022-09-02T11:09:52;24.30;82.60
52034;DHT22;38045;52.988;6.536;2022-09-02T11:12:35;24.40;80.90
52034;DHT22;38045;52.988;6.536;2022-09-02T11:15:18;24.40;81.80
52034;DHT22;38045;52.988;6.536;2022-09-02T11:18:08;24.60;83.30
52034;DHT22;38045;52.988;6.536;2022-09-02T11:20:47;24.80;82.40
52034;DHT22;38045;52.988;6.536;2022-09-02T11:26:01;25.00;80.60
52034;DHT22;38045;52.988;6.536;2022-09-02T11:29:00;25.10;80.20
52034;DHT22;38045;52.988;6.536;2022-09-02T11:31:31;25.30;81.00
52034;DHT22;38045;52.988;6.536;2022-09-02T11:36:47;25.40;80.60
52034;DHT22;38045;52.988;6.536;2022-09-02T11:42:03;25.80;79.70
52034;DHT22;38045;52.988;6.536;2022-09-02T11:45:07;25.70;78.70
52034;DHT22;38045;52.988;6.536;2022-09-02T11:50:35;25.60;77.80
52034;DHT22;38045;52.988;6.536;2022-09-02T11:53:28;25.70;76.00
52034;DHT22;38045;52.988;6.536;2022-09-02T11:56:00;25.90;78.00
52034;DHT22;38045;52.988;6.536;2022-09-02T11:58:39;25.90;75.70
52034;DHT22;38045;52.988;6.536;2022-09-02T12:01:25;25.90;76.60
52034;DHT22;38045;52.988;6.536;2022-09-02T12:04:25;26.00;76.20
52034;DHT22;38045;52.988;6.536;2022-09-02T12:09:50;26.00;73.30
52034;DHT22;38045;52.988;6.536;2022-09-02T12:15:17;26.20;73.20
52034;DHT22;38045;52.988;6.536;2022-09-02T12:23:07;26.40;73.10
52034;DHT22;38045;52.988;6.536;2022-09-02T12:25:36;26.60;74.80
52034;DHT22;38045;52.988;6.536;2022-09-02T12:28:28;26.70;74.60
52034;DHT22;38045;52.988;6.536;2022-09-02T12:33:36;26.70;74.10
52034;DHT22;38045;52.988;6.536;2022-09-02T12:36:04;26.50;72.70
52034;DHT22;38045;52.988;6.536;2022-09-02T12:41:05;26.40;72.20
52034;DHT22;38045;52.988;6.536;2022-09-02T12:49:08;26.40;73.20
52034;DHT22;38045;52.988;6.536;2022-09-02T12:54:45;26.80;72.30
52034;DHT22;38045;52.988;6.536;2022-09-02T12:57:17;26.80;71.70
52034;DHT22;38045;52.988;6.536;2022-09-02T12:59:45;26.60;71.70
52034;DHT22;38045;52.988;6.536;2022-09-02T13:02:35;26.50;69.70
52034;DHT22;38045;52.988;6.536;2022-09-02T13:05:11;26.60;71.50
52034;DHT22;38045;52.988;6.536;2022-09-02T13:15:57;27.20;71.80
52034;DHT22;38045;52.988;6.536;2022-09-02T13:18:54;27.40;70.00
52034;DHT22;38045;52.988;6.536;2022-09-02T13:24:21;26.90;69.50
52034;DHT22;38045;52.988;6.536;2022-09-02T13:27:09;26.80;70.80
52034;DHT22;38045;52.988;6.536;2022-09-02T13:30:03;27.00;71.20
52034;DHT22;38045;52.988;6.536;2022-09-02T13:32:30;27.00;69.00
52034;DHT22;38045;52.988;6.536;2022-09-02T13:35:01;26.80;68.20
52034;DHT22;38045;52.988;6.536;2022-09-02T13:37:40;26.70;68.90
52034;DHT22;38045;52.988;6.536;2022-09-02T13:40:17;26.60;69.30
52034;DHT22;38045;52.988;6.536;2022-09-02T13:42:52;26.50;69.80
52034;DHT22;38045;52.988;6.536;2022-09-02T13:45:23;26.70;70.60
52034;DHT22;38045;52.988;6.536;2022-09-02T13:47:51;26.70;69.40
52034;DHT22;38045;52.988;6.536;2022-09-02T13:50:20;26.60;69.50
52034;DHT22;38045;52.988;6.536;2022-09-02T13:52:50;26.60;68.50
52034;DHT22;38045;52.988;6.536;2022-09-02T13:55:17;26.60;69.30
52034;DHT22;38045;52.988;6.536;2022-09-02T13:57:53;26.60;69.00
52034;DHT22;38045;52.988;6.536;2022-09-02T14:00:27;26.40;69.10
52034;DHT22;38045;52.988;6.536;2022-09-02T14:03:04;26.50;68.50
52034;DHT22;38045;52.988;6.536;2022-09-02T14:05:31;26.60;68.90
52034;DHT22;38045;52.988;6.536;2022-09-02T14:07:59;26.60;68.00
52034;DHT22;38045;52.988;6.536;2022-09-02T14:10:29;26.60;68.20
52034;DHT22;38045;52.988;6.536;2022-09-02T14:12:57;26.40;68.50
52034;DHT22;38045;52.988;6.536;2022-09-02T14:15:28;26.40;68.10
52034;DHT22;38045;52.988;6.536;2022-09-02T14:20:38;26.50;68.60
52034;DHT22;38045;52.988;6.536;2022-09-02T14:23:04;26.60;67.50
52034;DHT22;38045;52.988;6.536;2022-09-02T14:25:48;26.60;68.00
52034;DHT22;38045;52.988;6.536;2022-09-02T14:28:19;26.20;66.20
52034;DHT22;38045;52.988;6.536;2022-09-02T14:30:55;26.00;67.70
52034;DHT22;38045;52.988;6.536;2022-09-02T14:41:17;26.00;68.10
52034;DHT22;38045;52.988;6.536;2022-09-02T14:44:07;25.90;68.90
52034;DHT22;38045;52.988;6.536;2022-09-02T14:46:43;25.70;68.10
52034;DHT22;38045;52.988;6.536;2022-09-02T14:49:18;25.60;68.60
52034;DHT22;38045;52.988;6.536;2022-09-02T14:51:48;25.50;67.90
52034;DHT22;38045;52.988;6.536;2022-09-02T14:56:58;25.50;68.50
52034;DHT22;38045;52.988;6.536;2022-09-02T14:59:24;25.30;68.40
52034;DHT22;38045;52.988;6.536;2022-09-02T15:01:51;25.10;68.20
52034;DHT22;38045;52.988;6.536;2022-09-02T15:04:18;25.10;69.50
52034;DHT22;38045;52.988;6.536;2022-09-02T15:06:44;25.00;69.40
52034;DHT22;38045;52.988;6.536;2022-09-02T15:09:10;25.00;69.30
52034;DHT22;38045;52.988;6.536;2022-09-02T15:11:38;25.00;69.50
52034;DHT22;38045;52.988;6.536;2022-09-02T15:14:05;25.00;68.70
52034;DHT22;38045;52.988;6.536;2022-09-02T15:16:31;25.00;68.60
52034;DHT22;38045;52.988;6.536;2022-09-02T15:18:56;25.00;69.20
52034;DHT22;38045;52.988;6.536;2022-09-02T15:21:22;25.00;68.80
52034;DHT22;38045;52.988;6.536;2022-09-02T15:23:48;25.10;69.20
52034;DHT22;38045;52.988;6.536;2022-09-02T15:26:14;25.20;69.10
52034;DHT22;38045;52.988;6.536;2022-09-02T15:28:40;25.30;68.80
52034;DHT22;38045;52.988;6.536;2022-09-02T15:31:07;25.40;69.50
52034;DHT22;38045;52.988;6.536;2022-09-02T15:33:33;25.30;69.30
52034;DHT22;38045;52.988;6.536;2022-09-02T15:36:11;25.20;68.90
52034;DHT22;38045;52.988;6.536;2022-09-02T15:38:38;25.10;68.20
52034;DHT22;38045;52.988;6.536;2022-09-02T15:41:17;25.00;68.10
52034;DHT22;38045;52.988;6.536;2022-09-02T15:43:43;25.30;68.50
52034;DHT22;38045;52.988;6.536;2022-09-02T15:46:24;25.60;68.00
52034;DHT22;38045;52.988;6.536;2022-09-02T15:48:50;26.10;68.10
52034;DHT22;38045;52.988;6.536;2022-09-02T15:51:18;26.10;68.40
52034;DHT22;38045;52.988;6.536;2022-09-02T15:53:44;26.20;69.00
52034;DHT22;38045;52.988;6.536;2022-09-02T15:56:18;26.10;69.10
52034;DHT22;38045;52.988;6.536;2022-09-02T15:58:45;26.10;69.30
52034;DHT22;38045;52.988;6.536;2022-09-02T16:01:11;26.00;69.20
52034;DHT22;38045;52.988;6.536;2022-09-02T16:03:37;25.80;69.50
52034;DHT22;38045;52.988;6.536;2022-09-02T16:06:04;25.60;69.20
52034;DHT22;38045;52.988;6.536;2022-09-02T16:08:30;25.50;68.80
52034;DHT22;38045;52.988;6.536;2022-09-02T16:11:02;25.20;69.70
52034;DHT22;38045;52.988;6.536;2022-09-02T16:13:28;25.20;70.60
52034;DHT22;38045;52.988;6.536;2022-09-02T16:16:02;25.20;71.00
52034;DHT22;38045;52.988;6.536;2022-09-02T16:18:28;25.20;71.20
52034;DHT22;38045;52.988;6.536;2022-09-02T16:20:53;25.20;71.10
52034;DHT22;38045;52.988;6.536;2022-09-02T16:23:19;25.20;71.20
52034;DHT22;38045;52.988;6.536;2022-09-02T16:25:44;25.30;70.20
52034;DHT22;38045;52.988;6.536;2022-09-02T16:28:10;25.40;71.00
52034;DHT22;38045;52.988;6.536;2022-09-02T16:30:36;25.40;70.70
52034;DHT22;38045;52.988;6.536;2022-09-02T16:33:02;25.60;71.00
52034;DHT22;38045;52.988;6.536;2022-09-02T16:35:28;25.70;71.20
52034;DHT22;38045;52.988;6.536;2022-09-02T16:37:53;25.70;71.10
52034;DHT22;38045;52.988;6.536;2022-09-02T16:40:21;25.70;69.80
52034;DHT22;38045;52.988;6.536;2022-09-02T16:42:48;25.60;69.60
52034;DHT22;38045;52.988;6.536;2022-09-02T16:45:14;25.60;70.60
52034;DHT22;38045;52.988;6.536;2022-09-02T16:47:39;25.60;70.90
52034;DHT22;38045;52.988;6.536;2022-09-02T16:50:05;25.60;70.10
52034;DHT22;38045;52.988;6.536;2022-09-02T16:52:31;25.40;70.40
52034;DHT22;38045;52.988;6.536;2022-09-02T16:54:59;25.40;70.50
52034;DHT22;38045;52.988;6.536;2022-09-02T16:57:25;25.20;71.00
52034;DHT22;38045;52.988;6.536;2022-09-02T16:59:50;25.10;70.60
52034;DHT22;38045;52.988;6.536;2022-09-02T17:02:16;25.10;71.10
52034;DHT22;38045;52.988;6.536;2022-09-02T17:04:42;25.00;72.20
52034;DHT22;38045;52.988;6.536;2022-09-02T17:07:07;24.90;71.80
52034;DHT22;38045;52.988;6.536;2022-09-02T17:09:34;24.80;72.00
52034;DHT22;38045;52.988;6.536;2022-09-02T17:11:59;24.70;72.20
52034;DHT22;38045;52.988;6.536;2022-09-02T17:14:25;24.70;72.20
52034;DHT22;38045;52.988;6.536;2022-09-02T17:16:51;24.60;72.60
52034;DHT22;38045;52.988;6.536;2022-09-02T17:19:18;24.50;72.80
52034;DHT22;38045;52.988;6.536;2022-09-02T17:21:52;24.40;72.40
52034;DHT22;38045;52.988;6.536;2022-09-02T17:24:20;24.40;72.80
52034;DHT22;38045;52.988;6.536;2022-09-02T17:26:48;24.20;72.70
52034;DHT22;38045;52.988;6.536;2022-09-02T17:29:20;24.10;73.20
52034;DHT22;38045;52.988;6.536;2022-09-02T17:31:46;24.10;73.20
52034;DHT22;38045;52.988;6.536;2022-09-02T17:34:13;24.00;73.20